createdAt,value
2019-01-17T00:00:42.144Z,68.45
2019-01-17T00:03:20.299Z,67.39
2019-01-17T00:06:05.647Z,66.63
2019-01-17T00:08:55.510Z,66.77
2019-01-17T00:11:38.189Z,67.42
2019-01-17T00:14:19.678Z,67.32
2019-01-17T00:17:13.458Z,66.62
2019-01-17T00:20:15.777Z,66.17
2019-01-17T00:23:08.376Z,66.29
2019-01-17T00:25:53.572Z,65.70
2019-01-17T00:28:39.204Z,66.01
2019-01-17T00:31:31.163Z,66.44
2019-01-17T00:34:16.490Z,67.09
2019-01-17T00:37:03.276Z,66.60
2019-01-17T00:39:45.698Z,66.63
2019-01-17T00:42:30.898Z,67.15
2019-01-17T00:45:26.886Z,67.06
2019-01-17T00:48:12.029Z,67.11
2019-01-17T00:51:04.480Z,66.57
2019-01-17T00:53:49.448Z,66.41
2019-01-17T00:56:54.442Z,65.88
2019-01-17T00:59:39.663Z,67.07
2019-01-17T01:02:26.492Z,67.22
2019-01-17T01:05:12.062Z,66.77
2019-01-17T01:07:57.631Z,66.98
2019-01-17T01:10:42.870Z,67.83
2019-01-17T01:13:27.866Z,67.36
2019-01-17T01:16:23.417Z,67.37
2019-01-17T01:19:02.155Z,68.26
2019-01-17T01:21:42.323Z,68.49
2019-01-17T01:24:32.192Z,68.73
2019-01-17T01:27:14.394Z,68.29
2019-01-17T01:30:06.947Z,68.00
2019-01-17T01:32:53.734Z,67.48
2019-01-17T01:35:43.305Z,67.89
2019-01-17T01:38:30.380Z,68.61
2019-01-17T01:41:17.168Z,69.68
2019-01-17T01:43:57.254Z,69.19
2019-01-17T01:46:44.341Z,69.56
2019-01-17T01:49:39.866Z,69.83
2019-01-17T01:52:35.944Z,70.67
2019-01-17T01:55:03.879Z,70.33
2019-01-17T01:57:30.979Z,68.98
2019-01-17T01:59:58.175Z,69.37
2019-01-17T02:02:25.277Z,68.92
2019-01-17T02:04:52.447Z,68.84
2019-01-17T02:07:19.658Z,68.73
2019-01-17T02:09:46.798Z,69.29
2019-01-17T02:12:13.994Z,70.10
2019-01-17T02:14:41.198Z,69.72
2019-01-17T02:17:08.730Z,70.21
2019-01-17T02:19:35.905Z,69.70
2019-01-17T02:22:03.116Z,68.82
2019-01-17T02:24:30.568Z,69.26
2019-01-17T02:26:57.768Z,69.28
2019-01-17T02:29:25.277Z,69.50
2019-01-17T02:31:52.410Z,69.79
2019-01-17T02:34:19.568Z,70.42
2019-01-17T02:36:47.076Z,70.18
2019-01-17T02:39:14.418Z,69.70
2019-01-17T02:41:41.573Z,69.44
2019-01-17T02:44:08.686Z,69.32
2019-01-17T02:46:35.848Z,69.33
2019-01-17T02:49:03.003Z,69.88
2019-01-17T02:51:30.199Z,69.67
2019-01-17T02:53:57.389Z,70.08
2019-01-17T02:56:24.578Z,70.74
2019-01-17T02:58:51.777Z,70.68
2019-01-17T03:01:18.974Z,71.22
2019-01-17T03:03:46.132Z,71.22
2019-01-17T03:06:13.392Z,71.24
2019-01-17T03:08:40.539Z,71.51
2019-01-17T03:11:07.743Z,71.95
2019-01-17T03:13:34.915Z,71.26
2019-01-17T03:16:02.155Z,71.68
2019-01-17T03:18:29.520Z,72.01
2019-01-17T03:20:56.718Z,72.13
2019-01-17T03:23:23.864Z,71.81
2019-01-17T03:25:50.958Z,72.38
2019-01-17T03:28:18.138Z,72.23
2019-01-17T03:30:45.326Z,72.24
2019-01-17T03:33:12.511Z,72.00
2019-01-17T03:35:39.605Z,72.68
2019-01-17T03:38:06.804Z,72.93
2019-01-17T03:40:33.969Z,72.70
2019-01-17T03:43:01.216Z,72.64
2019-01-17T03:45:28.371Z,72.75
2019-01-17T03:47:55.452Z,72.83
2019-01-17T03:50:22.650Z,72.93
2019-01-17T03:52:49.804Z,73.76
2019-01-17T03:55:19.465Z,73.86
2019-01-17T03:57:46.679Z,73.43
2019-01-17T04:00:16.721Z,74.05
2019-01-17T04:02:44.175Z,74.11
2019-01-17T04:05:11.486Z,74.27
2019-01-17T04:07:38.551Z,74.26
2019-01-17T04:10:07.290Z,73.81
2019-01-17T04:12:34.396Z,74.22
2019-01-17T04:15:01.580Z,74.23
2019-01-17T04:17:28.862Z,74.65
2019-01-17T04:19:56.073Z,74.84
2019-01-17T04:22:23.239Z,75.17
2019-01-17T04:24:57.107Z,75.70
2019-01-17T04:27:19.631Z,76.61
2019-01-17T04:29:46.803Z,77.00
2019-01-17T04:32:14.020Z,76.49
2019-01-17T04:34:41.243Z,76.45
2019-01-17T04:37:08.444Z,77.28
2019-01-17T04:39:35.612Z,77.68
2019-01-17T04:42:02.830Z,78.04
2019-01-17T04:44:30.326Z,78.34
2019-01-17T04:46:57.534Z,78.81
2019-01-17T04:49:26.557Z,79.64
2019-01-17T04:51:53.754Z,79.97
2019-01-17T04:54:20.831Z,80.08
2019-01-17T04:56:47.976Z,80.28
2019-01-17T04:59:15.145Z,80.74
2019-01-17T05:01:42.331Z,81.08
2019-01-17T05:04:09.832Z,81.15
2019-01-17T05:06:36.990Z,80.69
2019-01-17T05:09:06.408Z,80.93
2019-01-17T05:11:33.628Z,81.20
2019-01-17T05:14:00.815Z,81.80
2019-01-17T05:16:27.992Z,81.90
2019-01-17T05:18:55.187Z,82.34
2019-01-17T05:21:22.348Z,81.85
2019-01-17T05:23:49.549Z,81.83
2019-01-17T05:26:16.762Z,82.06
2019-01-17T05:28:43.984Z,82.46
2019-01-17T05:31:11.379Z,82.40
2019-01-17T05:33:38.878Z,82.50
2019-01-17T05:36:06.036Z,83.07
2019-01-17T05:38:33.219Z,83.68
2019-01-17T05:41:00.590Z,83.51
2019-01-17T05:43:27.753Z,83.47
2019-01-17T05:45:54.923Z,83.86
2019-01-17T05:48:22.125Z,83.84
2019-01-17T05:50:49.170Z,83.53
2019-01-17T05:53:16.324Z,83.55
2019-01-17T05:55:43.547Z,84.07
2019-01-17T05:58:10.714Z,83.93
2019-01-17T06:00:37.895Z,83.82
2019-01-17T06:03:05.085Z,83.58
2019-01-17T06:05:32.134Z,83.92
2019-01-17T06:07:59.338Z,84.47
2019-01-17T06:10:26.527Z,84.65
2019-01-17T06:12:54.211Z,84.71
2019-01-17T06:15:22.859Z,84.93
2019-01-17T06:17:50.111Z,84.94
2019-01-17T06:20:17.399Z,84.71
2019-01-17T06:22:44.600Z,84.96
2019-01-17T06:25:12.060Z,85.08
2019-01-17T06:27:39.236Z,85.14
2019-01-17T06:30:08.530Z,85.45
2019-01-17T06:32:35.764Z,85.54
2019-01-17T06:35:04.263Z,85.32
2019-01-17T06:37:31.472Z,85.17
2019-01-17T06:39:58.667Z,85.26
2019-01-17T06:42:25.873Z,85.41
2019-01-17T06:44:53.060Z,85.59
2019-01-17T06:47:20.258Z,85.79
2019-01-17T06:49:47.408Z,85.87
2019-01-17T06:52:14.566Z,85.96
2019-01-17T06:54:41.670Z,86.02
2019-01-17T06:57:08.985Z,86.00
2019-01-17T06:59:36.162Z,85.94
2019-01-17T07:02:03.464Z,85.75
2019-01-17T07:04:30.908Z,85.41
2019-01-17T07:06:58.071Z,85.33
2019-01-17T07:09:25.306Z,84.88
2019-01-17T07:11:52.728Z,84.43
2019-01-17T07:14:19.909Z,84.48
2019-01-17T07:16:47.128Z,84.53
2019-01-17T07:19:14.304Z,84.44
2019-01-17T07:21:41.504Z,84.57
2019-01-17T07:24:08.781Z,84.73
2019-01-17T07:26:35.956Z,84.86
2019-01-17T07:29:03.376Z,84.75
2019-01-17T07:31:30.563Z,84.64
2019-01-17T07:33:57.741Z,84.73
2019-01-17T07:36:24.945Z,84.70
2019-01-17T07:38:52.133Z,84.56
2019-01-17T07:41:19.525Z,84.45
2019-01-17T07:43:46.733Z,84.26
2019-01-17T07:46:14.233Z,84.05
2019-01-17T07:48:41.461Z,84.02
2019-01-17T07:51:08.584Z,84.06
2019-01-17T07:53:35.802Z,83.87
2019-01-17T07:56:03.500Z,83.26
2019-01-17T07:58:30.698Z,82.92
2019-01-17T08:00:57.898Z,82.95
2019-01-17T08:03:25.071Z,82.96
2019-01-17T08:05:52.222Z,82.83
2019-01-17T08:08:19.417Z,82.25
2019-01-17T08:10:46.585Z,81.87
2019-01-17T08:13:14.080Z,81.73
2019-01-17T08:15:41.307Z,81.72
2019-01-17T08:18:08.408Z,81.72
2019-01-17T08:20:35.777Z,80.78
2019-01-17T08:23:02.972Z,80.69
2019-01-17T08:25:30.130Z,80.45
2019-01-17T08:27:57.319Z,79.75
2019-01-17T08:30:26.374Z,79.13
2019-01-17T08:32:53.556Z,79.35
2019-01-17T08:35:20.867Z,79.78
2019-01-17T08:37:48.066Z,79.95
2019-01-17T08:40:20.395Z,80.02
2019-01-17T08:42:46.981Z,80.04
2019-01-17T08:45:14.290Z,79.80
2019-01-17T08:47:41.637Z,79.29
2019-01-17T08:50:10.024Z,79.21
2019-01-17T08:52:37.508Z,79.12
2019-01-17T08:55:04.872Z,79.32
2019-01-17T08:57:32.033Z,79.60
2019-01-17T08:59:59.166Z,79.83
2019-01-17T09:02:26.354Z,80.00
2019-01-17T09:04:53.728Z,79.50
2019-01-17T09:07:20.949Z,79.18
2019-01-17T09:09:48.125Z,78.57
2019-01-17T09:12:15.316Z,77.87
2019-01-17T09:14:42.520Z,77.48
2019-01-17T09:17:09.709Z,77.60
2019-01-17T09:19:36.871Z,77.39
2019-01-17T09:22:04.084Z,75.18
2019-01-17T09:24:31.520Z,74.67
2019-01-17T09:26:58.736Z,75.01
2019-01-17T09:29:25.952Z,74.85
2019-01-17T09:31:53.150Z,74.25
2019-01-17T09:34:20.323Z,74.31
2019-01-17T09:36:47.536Z,74.52
2019-01-17T09:39:14.707Z,74.44
2019-01-17T09:41:41.803Z,74.38
2019-01-17T09:44:08.989Z,74.44
2019-01-17T09:46:36.081Z,74.48
2019-01-17T09:49:03.456Z,74.73
2019-01-17T09:51:30.681Z,74.27
2019-01-17T09:53:57.796Z,73.86
2019-01-17T09:56:24.997Z,73.14
2019-01-17T09:58:54.290Z,73.13
2019-01-17T10:01:21.503Z,73.51
2019-01-17T10:03:48.772Z,73.65
2019-01-17T10:06:15.960Z,73.77
2019-01-17T10:08:43.121Z,73.04
2019-01-17T10:11:10.325Z,72.53
2019-01-17T10:13:37.513Z,72.18
2019-01-17T10:16:36.022Z,71.10
2019-01-17T10:19:45.252Z,71.44
2019-01-17T10:22:33.901Z,72.16
2019-01-17T10:25:24.355Z,72.61
2019-01-17T10:28:45.661Z,72.64
2019-01-17T10:32:06.924Z,72.57
2019-01-17T10:35:06.938Z,72.56
2019-01-17T10:38:04.438Z,71.60
2019-01-17T10:41:13.694Z,69.23
2019-01-17T10:44:30.318Z,68.17
2019-01-17T10:47:33.766Z,67.83
2019-01-17T10:50:12.113Z,67.72
2019-01-17T10:53:21.729Z,67.91
2019-01-17T10:56:45.727Z,66.55
2019-01-17T10:59:27.195Z,66.06
2019-01-17T11:02:42.088Z,66.44
2019-01-17T11:05:50.232Z,66.19
2019-01-17T11:08:44.962Z,63.83
2019-01-17T11:11:37.900Z,63.21
2019-01-17T11:14:22.335Z,62.40
2019-01-17T11:17:14.969Z,60.46
2019-01-17T11:20:18.224Z,60.39
2019-01-17T11:23:22.795Z,61.40
2019-01-17T11:26:01.974Z,61.74
2019-01-17T11:28:47.628Z,62.00
2019-01-17T11:32:02.256Z,61.86
2019-01-17T11:35:16.175Z,62.35
2019-01-17T11:38:27.074Z,62.17
2019-01-17T11:41:35.427Z,60.11
2019-01-17T11:44:43.128Z,60.94
2019-01-17T11:47:24.772Z,57.85
2019-01-17T11:50:29.663Z,58.95
2019-01-17T11:53:53.934Z,58.06
2019-01-17T11:56:53.164Z,56.73
2019-01-17T11:59:34.665Z,56.17
2019-01-17T12:02:39.086Z,56.43
2019-01-17T12:05:02.892Z,55.07
2019-01-17T12:07:30.000Z,55.67
2019-01-17T12:09:57.350Z,54.61
2019-01-17T12:12:25.128Z,54.89
2019-01-17T12:14:54.707Z,55.23
2019-01-17T12:17:22.214Z,55.79
2019-01-17T12:19:49.391Z,56.40
2019-01-17T12:22:16.624Z,56.69
2019-01-17T12:24:43.809Z,55.89
2019-01-17T12:27:11.030Z,56.79
2019-01-17T12:29:38.241Z,56.98
2019-01-17T12:32:05.468Z,57.25
2019-01-17T12:34:32.642Z,57.69
2019-01-17T12:36:59.843Z,58.42
2019-01-17T12:39:27.044Z,58.59
2019-01-17T12:41:54.261Z,59.28
2019-01-17T12:44:21.327Z,59.95
2019-01-17T12:46:48.568Z,59.18
2019-01-17T12:49:15.645Z,59.28
2019-01-17T12:51:42.847Z,59.84
2019-01-17T12:54:09.959Z,60.03
2019-01-17T12:56:37.449Z,60.76
2019-01-17T12:59:04.661Z,60.17
2019-01-17T13:01:32.172Z,58.67
2019-01-17T13:03:59.353Z,59.20
2019-01-17T13:06:26.577Z,59.58
2019-01-17T13:08:53.815Z,58.57
2019-01-17T13:11:20.979Z,58.36
2019-01-17T13:13:49.073Z,58.26
2019-01-17T13:16:16.278Z,59.33
2019-01-17T13:18:43.429Z,60.17
2019-01-17T13:21:10.822Z,62.36
2019-01-17T13:23:38.137Z,62.41
2019-01-17T13:26:05.245Z,62.67
2019-01-17T13:28:32.431Z,61.76
2019-01-17T13:30:59.555Z,61.00
2019-01-17T13:33:26.720Z,62.07
2019-01-17T13:35:53.818Z,61.07
2019-01-17T13:38:21.036Z,61.54
2019-01-17T13:40:48.546Z,61.78
2019-01-17T13:43:15.716Z,62.22
2019-01-17T13:45:42.950Z,61.55
2019-01-17T13:48:10.114Z,61.44
2019-01-17T13:50:37.213Z,61.32
2019-01-17T13:53:04.519Z,61.92
2019-01-17T13:55:31.915Z,60.86
2019-01-17T13:57:59.132Z,60.46
2019-01-17T14:00:26.978Z,59.91
2019-01-17T14:02:54.084Z,59.55
2019-01-17T14:05:21.283Z,59.99
2019-01-17T14:07:48.903Z,58.67
2019-01-17T14:10:16.088Z,57.88
2019-01-17T14:12:43.188Z,58.50
2019-01-17T14:15:19.215Z,58.41
2019-01-17T14:17:46.316Z,59.32
2019-01-17T14:20:13.616Z,58.76
2019-01-17T14:22:40.880Z,58.83
2019-01-17T14:25:08.219Z,59.80
2019-01-17T14:27:35.412Z,59.94
2019-01-17T14:30:04.159Z,60.70
2019-01-17T14:32:31.371Z,60.72
2019-01-17T14:34:58.909Z,62.31
2019-01-17T14:37:26.191Z,62.18
2019-01-17T14:39:53.391Z,61.76
2019-01-17T14:42:20.585Z,62.04
2019-01-17T14:44:47.855Z,62.24
2019-01-17T14:47:15.052Z,63.13
2019-01-17T14:49:42.223Z,62.31
2019-01-17T14:52:09.420Z,62.86
2019-01-17T14:54:36.533Z,63.08
2019-01-17T14:57:03.946Z,63.91
2019-01-17T14:59:31.370Z,64.78
2019-01-17T15:01:58.548Z,65.38
2019-01-17T15:04:25.750Z,65.59
2019-01-17T15:06:53.058Z,66.20
2019-01-17T15:09:20.560Z,67.40
2019-01-17T15:11:47.766Z,68.07
2019-01-17T15:14:14.974Z,70.29
2019-01-17T15:16:42.184Z,72.95
2019-01-17T15:19:27.911Z,73.74
2019-01-17T15:22:13.542Z,75.64
2019-01-17T15:24:58.950Z,75.75
2019-01-17T15:27:44.399Z,75.33
2019-01-17T15:30:14.676Z,76.67
2019-01-17T15:32:41.887Z,78.37
2019-01-17T15:35:09.105Z,79.69
2019-01-17T15:37:36.379Z,79.51
2019-01-17T15:40:06.131Z,79.80
2019-01-17T15:42:33.299Z,80.28
2019-01-17T15:45:00.853Z,80.69
2019-01-17T15:47:28.033Z,80.32
2019-01-17T15:49:55.213Z,79.55
2019-01-17T15:52:22.462Z,78.77
2019-01-17T15:54:49.623Z,78.54
2019-01-17T15:57:17.005Z,77.77
2019-01-17T15:59:44.551Z,77.94
2019-01-17T16:02:11.977Z,78.03
2019-01-17T16:04:39.179Z,77.55
2019-01-17T16:07:07.490Z,77.85
2019-01-17T16:09:34.723Z,78.63
2019-01-17T16:12:01.939Z,79.45
2019-01-17T16:14:29.180Z,79.78
2019-01-17T16:16:56.348Z,80.11
2019-01-17T16:19:23.568Z,80.78
2019-01-17T16:21:50.745Z,81.56
2019-01-17T16:24:17.847Z,82.12
2019-01-17T16:26:45.008Z,82.69
2019-01-17T16:29:12.250Z,83.27
2019-01-17T16:31:39.440Z,83.06
2019-01-17T16:34:06.622Z,83.20
2019-01-17T16:36:33.824Z,83.57
2019-01-17T16:39:00.988Z,83.90
2019-01-17T16:41:28.204Z,84.16
2019-01-17T16:43:55.340Z,84.51
2019-01-17T16:46:22.838Z,84.85
2019-01-17T16:48:50.044Z,85.18
2019-01-17T16:51:17.279Z,85.47
2019-01-17T16:53:44.499Z,85.59
2019-01-17T16:56:12.000Z,85.56
2019-01-17T16:58:39.186Z,84.99
2019-01-17T17:01:06.385Z,83.04
2019-01-17T17:03:33.562Z,81.03
2019-01-17T17:06:00.692Z,79.48
2019-01-17T17:08:27.994Z,78.60
2019-01-17T17:10:55.205Z,78.43
2019-01-17T17:13:22.552Z,78.24
2019-01-17T17:15:49.733Z,77.60
2019-01-17T17:18:16.936Z,78.18
2019-01-17T17:20:44.076Z,76.90
2019-01-17T17:23:11.289Z,76.50
2019-01-17T17:25:38.691Z,76.88
2019-01-17T17:28:05.917Z,77.65
2019-01-17T17:30:33.095Z,77.30
2019-01-17T17:33:00.268Z,77.17
2019-01-17T17:35:27.488Z,77.09
2019-01-17T17:37:54.993Z,77.30
2019-01-17T17:40:24.452Z,77.56
2019-01-17T17:42:51.677Z,77.57
2019-01-17T17:45:19.419Z,77.11
2019-01-17T17:47:46.509Z,76.41
2019-01-17T17:50:14.477Z,75.10
2019-01-17T17:52:41.649Z,75.52
2019-01-17T17:55:10.198Z,75.12
2019-01-17T17:57:37.477Z,75.46
2019-01-17T18:00:08.671Z,75.14
2019-01-17T18:02:37.741Z,75.38
2019-01-17T18:05:08.190Z,75.60
2019-01-17T18:07:35.277Z,75.52
2019-01-17T18:10:03.334Z,75.36
2019-01-17T18:12:30.468Z,75.45
2019-01-17T18:14:57.678Z,75.28
2019-01-17T18:17:25.102Z,73.96
2019-01-17T18:19:52.330Z,72.83
2019-01-17T18:22:19.854Z,73.35
2019-01-17T18:24:47.065Z,73.50
2019-01-17T18:27:14.624Z,72.93
2019-01-17T18:29:41.824Z,73.28
2019-01-17T18:32:09.449Z,73.62
2019-01-17T18:34:36.918Z,73.62
2019-01-17T18:37:04.100Z,73.37
2019-01-17T18:39:31.292Z,72.32
2019-01-17T18:41:58.526Z,72.00
2019-01-17T18:44:25.602Z,72.66
2019-01-17T18:46:52.799Z,72.77
2019-01-17T18:49:19.900Z,74.32
2019-01-17T18:51:47.079Z,74.38
2019-01-17T18:54:14.219Z,74.82
2019-01-17T18:56:41.419Z,74.30
2019-01-17T18:59:08.621Z,73.90
2019-01-17T19:01:35.838Z,74.14
2019-01-17T19:04:03.165Z,74.41
2019-01-17T19:06:31.116Z,74.14
2019-01-17T19:08:58.335Z,74.44
2019-01-17T19:11:25.586Z,74.75
2019-01-17T19:13:52.742Z,74.74
2019-01-17T19:16:20.037Z,75.36
2019-01-17T19:18:47.299Z,75.68
2019-01-17T19:21:14.491Z,76.34
2019-01-17T19:23:41.879Z,77.23
2019-01-17T19:26:09.112Z,77.67
2019-01-17T19:28:36.280Z,78.07
2019-01-17T19:31:03.696Z,78.74
2019-01-17T19:33:30.899Z,77.16
2019-01-17T19:35:57.962Z,75.21
2019-01-17T19:38:25.168Z,75.21
2019-01-17T19:40:52.434Z,75.21
2019-01-17T19:43:19.666Z,75.41
2019-01-17T19:45:46.871Z,74.81
2019-01-17T19:48:13.990Z,75.21
2019-01-17T19:50:41.108Z,74.56
2019-01-17T19:53:09.062Z,74.01
2019-01-17T19:55:36.332Z,73.17
2019-01-17T19:58:03.658Z,73.30
2019-01-17T20:00:30.878Z,73.99
2019-01-17T20:02:58.667Z,74.80
2019-01-17T20:05:27.334Z,75.74
2019-01-17T20:07:54.900Z,75.08
2019-01-17T20:10:27.051Z,75.34
2019-01-17T20:12:54.126Z,75.94
2019-01-17T20:15:21.425Z,76.84
2019-01-17T20:17:48.575Z,77.98
2019-01-17T20:20:16.409Z,77.68
2019-01-17T20:22:43.612Z,77.46
2019-01-17T20:25:10.875Z,78.05
2019-01-17T20:27:38.141Z,79.03
2019-01-17T20:30:09.724Z,79.10
2019-01-17T20:32:36.996Z,79.11
2019-01-17T20:35:04.744Z,79.10
2019-01-17T20:37:31.955Z,79.35
2019-01-17T20:39:59.501Z,79.69
2019-01-17T20:42:26.723Z,80.14
2019-01-17T20:44:53.921Z,80.64
2019-01-17T20:47:21.165Z,80.90
2019-01-17T20:49:48.383Z,81.18
2019-01-17T20:52:15.656Z,81.39
2019-01-17T20:54:43.040Z,81.82
2019-01-17T20:57:11.014Z,81.95
2019-01-17T20:59:38.065Z,82.16
2019-01-17T21:02:17.320Z,82.41
2019-01-17T21:04:44.427Z,82.45
2019-01-17T21:07:11.888Z,82.60
2019-01-17T21:09:39.140Z,82.59
2019-01-17T21:12:06.308Z,82.46
2019-01-17T21:14:33.544Z,82.37
2019-01-17T21:17:00.769Z,82.26
2019-01-17T21:19:27.975Z,82.22
2019-01-17T21:21:55.183Z,82.28
2019-01-17T21:24:22.400Z,82.16
2019-01-17T21:26:49.646Z,81.84
2019-01-17T21:29:17.086Z,81.20
2019-01-17T21:31:44.329Z,80.15
2019-01-17T21:34:11.492Z,79.25
2019-01-17T21:36:39.018Z,78.49
2019-01-17T21:39:06.950Z,77.99
2019-01-17T21:41:34.075Z,77.70
2019-01-17T21:44:01.249Z,76.69
2019-01-17T21:46:28.377Z,76.31
2019-01-17T21:48:55.564Z,76.77
2019-01-17T21:51:26.410Z,77.22
2019-01-17T21:53:54.148Z,77.51
2019-01-17T21:56:21.350Z,76.74
2019-01-17T21:58:48.872Z,76.84
2019-01-17T22:01:16.075Z,77.07
2019-01-17T22:03:43.554Z,76.83
2019-01-17T22:06:10.754Z,76.34
2019-01-17T22:08:37.956Z,75.66
2019-01-17T22:11:05.155Z,73.33
2019-01-17T22:13:32.628Z,72.43
2019-01-17T22:15:59.824Z,72.10
2019-01-17T22:18:27.380Z,72.15
2019-01-17T22:20:54.558Z,72.05
2019-01-17T22:23:21.682Z,71.42
2019-01-17T22:25:48.907Z,71.67
2019-01-17T22:28:16.554Z,71.03
2019-01-17T22:30:43.775Z,70.99
2019-01-17T22:33:10.843Z,71.10
2019-01-17T22:35:37.933Z,69.84
2019-01-17T22:38:05.162Z,70.08
2019-01-17T22:40:32.353Z,70.50
2019-01-17T22:42:59.528Z,71.05
2019-01-17T22:45:28.747Z,70.60
2019-01-17T22:47:55.845Z,70.26
2019-01-17T22:50:23.037Z,68.99
2019-01-17T22:52:50.285Z,68.63
2019-01-17T22:55:17.497Z,68.27
2019-01-17T22:57:44.991Z,68.08
2019-01-17T23:00:54.185Z,68.00
2019-01-17T23:03:39.368Z,68.83
2019-01-17T23:06:06.602Z,69.11
2019-01-17T23:08:33.777Z,69.00
2019-01-17T23:11:01.276Z,69.38
2019-01-17T23:13:28.502Z,68.77
2019-01-17T23:15:55.722Z,69.03
2019-01-17T23:18:23.227Z,69.01
2019-01-17T23:20:50.659Z,69.16
2019-01-17T23:23:17.827Z,68.80
2019-01-17T23:25:44.949Z,68.55
2019-01-17T23:28:12.135Z,67.28
2019-01-17T23:30:39.355Z,66.84
2019-01-17T23:33:06.520Z,67.05
2019-01-17T23:35:33.886Z,67.63
2019-01-17T23:38:01.072Z,67.87
2019-01-17T23:40:28.280Z,68.55
2019-01-17T23:42:55.521Z,68.86
2019-01-17T23:45:22.955Z,69.09
2019-01-17T23:47:50.037Z,68.71
2019-01-17T23:50:17.226Z,69.60
2019-01-17T23:52:44.426Z,70.65
2019-01-17T23:55:11.590Z,70.66
2019-01-17T23:57:38.808Z,70.09
